Time;durP1;ratioP1;P1;durP2;ratioP2;P2;SDS_P1;SDS_P2;PMS_P1;PMS_P2;Temp;Humidity;BMP_temperature;BMP_pressure;BME280_temperature;BME280_humidity;BME280_pressure;Samples;Min_cycle;Max_cycle;Signal;HPM_P1;HPM_P2
2022/04/03 00:01:44;;;;;;;6.90;2.60;;;3.30;99.90;;;;;;5073839;28;20173;-86
2022/04/03 00:04:09;;;;;;;5.50;2.73;;;3.30;99.90;;;;;;5073174;28;20191;-79
2022/04/03 00:06:35;;;;;;;5.77;2.47;;;3.30;99.90;;;;;;5073437;28;20184;-85
2022/04/03 00:09:02;;;;;;;4.27;2.70;;;3.40;99.90;;;;;;5073131;28;20583;-80
2022/04/03 00:11:28;;;;;;;3.40;2.43;;;3.30;99.90;;;;;;5073282;28;20184;-84
2022/04/03 00:13:55;;;;;;;4.03;2.37;;;3.30;99.90;;;;;;5072649;28;20172;-81
2022/04/03 00:16:21;;;;;;;5.27;2.60;;;3.30;99.90;;;;;;5074425;28;20184;-85
2022/04/03 00:18:47;;;;;;;5.03;2.40;;;3.40;99.90;;;;;;5072711;28;20693;-83
2022/04/03 00:21:16;;;;;;;7.37;2.63;;;3.40;99.90;;;;;;5072676;28;20261;-80
2022/04/03 00:23:41;;;;;;;4.67;2.20;;;3.40;99.90;;;;;;5074051;28;20168;-85
2022/04/03 00:26:07;;;;;;;4.63;2.57;;;3.40;99.90;;;;;;5076873;28;20255;-80
2022/04/03 00:28:33;;;;;;;3.63;2.23;;;3.30;99.90;;;;;;5077093;28;20165;-84
2022/04/03 00:30:59;;;;;;;4.27;2.53;;;3.30;99.90;;;;;;5076353;28;20218;-81
2022/04/03 00:33:25;;;;;;;5.73;2.53;;;3.20;99.90;;;;;;5058478;28;20164;-84
2022/04/03 00:35:51;;;;;;;4.97;2.10;;;3.20;99.90;;;;;;5076290;28;20183;-82
2022/04/03 00:38:17;;;;;;;4.13;2.20;;;3.20;99.90;;;;;;5077151;28;20168;-82
2022/04/03 00:40:45;;;;;;;5.47;2.67;;;3.10;99.90;;;;;;5058828;28;20582;-81
2022/04/03 00:43:11;;;;;;;4.13;2.33;;;3.20;99.90;;;;;;5075890;28;20165;-81
2022/04/03 00:45:38;;;;;;;3.07;2.07;;;3.10;99.90;;;;;;5076420;28;20543;-85
2022/04/03 00:48:05;;;;;;;3.33;2.30;;;3.10;99.90;;;;;;5077520;28;20168;-84
2022/04/03 00:50:31;;;;;;;4.00;2.20;;;3.10;99.90;;;;;;5060421;28;20203;-81
2022/04/03 00:52:57;;;;;;;5.43;2.37;;;3.10;99.90;;;;;;5089049;28;20191;-79
2022/04/03 00:55:22;;;;;;;3.47;2.50;;;3.00;99.90;;;;;;5084303;28;20168;-85
2022/04/03 00:57:48;;;;;;;4.50;2.50;;;3.00;99.90;;;;;;5077751;28;20571;-79
2022/04/03 01:00:15;;;;;;;5.33;2.30;;;3.00;99.90;;;;;;5077760;28;20208;-85
2022/04/03 01:02:41;;;;;;;3.83;2.73;;;3.10;99.90;;;;;;5076413;28;20611;-86
2022/04/03 01:05:08;;;;;;;5.77;2.43;;;3.10;99.90;;;;;;5076301;28;20196;-85
2022/04/03 01:07:33;;;;;;;5.47;2.70;;;3.10;99.90;;;;;;5076022;28;20516;-85
2022/04/03 01:10:00;;;;;;;4.97;2.60;;;3.00;99.90;;;;;;5076728;28;20157;-84
2022/04/03 01:12:26;;;;;;;4.20;2.33;;;3.00;1.00;;;;;;5079404;28;20192;-77
2022/04/03 01:14:51;;;;;;;5.13;2.90;;;2.90;1.00;;;;;;5094452;28;20518;-77
2022/04/03 01:17:17;;;;;;;3.90;2.60;;;2.90;1.00;;;;;;5094293;28;20198;-75
2022/04/03 01:19:45;;;;;;;4.43;2.93;;;2.90;1.00;;;;;;5094909;28;20648;-79
2022/04/03 01:22:13;;;;;;;4.97;2.50;;;2.90;1.00;;;;;;5071483;28;20538;-78
2022/04/03 01:24:43;;;;;;;5.77;2.77;;;2.90;1.00;;;;;;5081894;28;20522;-86
2022/04/03 01:27:24;;;;;;;4.60;2.50;;;2.90;1.00;;;;;;5078453;28;20342;-84
2022/04/03 01:30:12;;;;;;;6.17;2.60;;;2.90;1.00;;;;;;5077280;28;20167;-81
2022/04/03 01:32:40;;;;;;;6.47;2.67;;;2.80;1.00;;;;;;5076967;28;20169;-81
2022/04/03 01:35:08;;;;;;;8.13;2.87;;;2.70;1.00;;;;;;5095196;28;20173;-82
2022/04/03 01:37:40;;;;;;;3.30;2.20;;;2.70;1.00;;;;;;5084954;28;20164;-84
2022/04/03 01:40:08;;;;;;;4.37;2.90;;;2.70;1.00;;;;;;5076189;28;20200;-85
2022/04/03 01:42:35;;;;;;;9.80;3.70;;;2.70;1.00;;;;;;5076052;28;20160;-86
2022/04/03 01:45:01;;;;;;;5.20;2.90;;;2.80;1.00;;;;;;5076217;28;20179;-76
2022/04/03 01:47:26;;;;;;;3.20;2.27;;;2.70;1.00;;;;;;5087410;28;20165;-85
2022/04/03 01:49:52;;;;;;;4.83;2.90;;;2.70;1.00;;;;;;5096361;28;20206;-82
2022/04/03 01:52:18;;;;;;;4.77;2.83;;;2.70;1.00;;;;;;5090501;28;20194;-84
2022/04/03 01:54:59;;;;;;;4.50;2.50;;;2.70;1.00;;;;;;5082571;28;20243;-83
2022/04/03 01:57:26;;;;;;;4.73;2.70;;;2.70;1.00;;;;;;5081482;28;20165;-83
2022/04/03 01:59:52;;;;;;;5.37;2.90;;;2.80;1.00;;;;;;5079614;28;20261;-83
2022/04/03 02:02:17;;;;;;;4.37;2.43;;;2.70;1.00;;;;;;5079127;28;20172;-83
2022/04/03 02:04:45;;;;;;;4.83;2.87;;;2.60;1.00;;;;;;5080790;28;20168;-83
2022/04/03 02:07:11;;;;;;;6.40;3.40;;;2.60;1.00;;;;;;5059293;28;20176;-78
2022/04/03 02:09:37;;;;;;;7.00;2.87;;;2.80;1.00;;;;;;5074467;28;20640;-83
2022/04/03 02:12:05;;;;;;;7.10;2.27;;;2.60;1.00;;;;;;5076670;28;20554;-78
2022/04/03 02:14:31;;;;;;;3.83;2.73;;;2.60;1.00;;;;;;5074410;28;20175;-84
2022/04/03 02:16:58;;;;;;;5.77;2.80;;;2.50;1.00;;;;;;5074531;28;20192;-78
2022/04/03 02:19:24;;;;;;;5.50;3.10;;;2.50;1.00;;;;;;5074894;28;20196;-79
2022/04/03 02:21:50;;;;;;;7.00;3.10;;;2.60;1.00;;;;;;5075735;28;20203;-82
2022/04/03 02:24:16;;;;;;;5.57;2.90;;;2.50;1.00;;;;;;5074546;28;20199;-77
2022/04/03 02:26:41;;;;;;;5.27;2.87;;;2.60;1.00;;;;;;5074492;28;20176;-84
2022/04/03 02:29:08;;;;;;;4.10;2.47;;;2.60;1.00;;;;;;5074160;28;20174;-84
2022/04/03 02:31:34;;;;;;;5.60;2.50;;;2.70;1.00;;;;;;5074977;28;20173;-84
2022/04/03 02:33:59;;;;;;;7.77;3.00;;;2.70;1.00;;;;;;5074531;28;20172;-84
2022/04/03 02:36:25;;;;;;;5.07;2.80;;;2.80;1.00;;;;;;5074859;28;20172;-77
2022/04/03 02:38:51;;;;;;;5.33;2.80;;;2.90;1.00;;;;;;5074260;28;20174;-83
2022/04/03 02:41:17;;;;;;;6.30;2.73;;;2.60;1.00;;;;;;5082533;28;20250;-84
2022/04/03 02:43:43;;;;;;;4.87;3.03;;;2.60;1.00;;;;;;5086683;28;20172;-79
2022/04/03 02:46:08;;;;;;;6.33;3.57;;;2.60;1.00;;;;;;5083331;28;20203;-84
2022/04/03 02:48:34;;;;;;;5.70;2.83;;;2.70;1.00;;;;;;5074825;28;20168;-84
2022/04/03 02:51:01;;;;;;;4.50;3.17;;;2.80;1.00;;;;;;5075897;28;20200;-84
2022/04/03 02:53:28;;;;;;;5.50;3.00;;;2.80;1.00;;;;;;5074840;28;20495;-85
2022/04/03 02:55:53;;;;;;;4.63;2.90;;;3.00;1.00;;;;;;5075100;28;20168;-81
2022/04/03 02:58:19;;;;;;;5.23;3.13;;;3.00;1.00;;;;;;5074911;28;20164;-85
2022/04/03 03:00:46;;;;;;;8.03;3.27;;;2.90;1.00;;;;;;5074826;28;20200;-84
2022/04/03 03:03:12;;;;;;;5.13;3.00;;;2.90;1.00;;;;;;5073771;28;20187;-83
2022/04/03 03:05:42;;;;;;;4.73;3.37;;;3.10;1.00;;;;;;5074518;28;20172;-79
2022/04/03 03:08:08;;;;;;;6.60;3.00;;;3.30;1.00;;;;;;5085733;28;20165;-83
2022/04/03 03:10:34;;;;;;;4.60;2.70;;;3.10;1.00;;;;;;5085391;28;20180;-84
2022/04/03 03:12:59;;;;;;;8.80;3.30;;;3.00;1.00;;;;;;5081111;28;20188;-85
2022/04/03 03:15:25;;;;;;;5.63;2.97;;;2.90;1.00;;;;;;5073366;28;20188;-85
2022/04/03 03:17:51;;;;;;;4.03;2.60;;;2.90;1.00;;;;;;5073859;28;20245;-80
2022/04/03 03:20:17;;;;;;;6.57;2.77;;;2.90;1.00;;;;;;5074098;28;20625;-85
2022/04/03 03:22:44;;;;;;;6.23;2.80;;;3.00;1.00;;;;;;5074170;28;20157;-84
2022/04/03 03:25:11;;;;;;;5.57;2.67;;;2.90;1.00;;;;;;5073888;28;20226;-84
2022/04/03 03:27:39;;;;;;;7.17;3.00;;;3.10;1.00;;;;;;5073750;28;20207;-78
2022/04/03 03:30:06;;;;;;;6.97;2.83;;;3.20;1.00;;;;;;5056856;28;20245;-84
2022/04/03 03:32:32;;;;;;;6.60;3.20;;;3.00;1.00;;;;;;5074999;28;20160;-78
2022/04/03 03:34:59;;;;;;;6.77;3.23;;;3.10;1.00;;;;;;5073557;28;20176;-81
2022/04/03 03:37:25;;;;;;;5.13;2.80;;;3.20;1.00;;;;;;5073876;28;20161;-84
2022/04/03 03:39:51;;;;;;;7.57;2.90;;;3.40;1.00;;;;;;5075761;28;20196;-84
2022/04/03 03:42:17;;;;;;;5.00;2.87;;;3.40;1.00;;;;;;5091096;28;20220;-78
2022/04/03 03:44:42;;;;;;;3.77;2.77;;;3.50;1.00;;;;;;5083874;28;20179;-82
2022/04/03 03:47:08;;;;;;;4.30;2.67;;;3.60;1.00;;;;;;5075404;28;20535;-84
2022/04/03 03:49:34;;;;;;;4.77;2.43;;;3.80;1.00;;;;;;5073805;28;20161;-81
2022/04/03 03:52:00;;;;;;;4.07;2.67;;;3.70;1.00;;;;;;5076706;28;20207;-78
2022/04/03 03:54:26;;;;;;;6.27;3.17;;;3.60;1.00;;;;;;5078690;28;20579;-86
2022/04/03 03:56:51;;;;;;;7.50;2.97;;;3.40;1.00;;;;;;5075883;28;20156;-82
2022/04/03 03:59:17;;;;;;;4.60;2.57;;;3.20;1.00;;;;;;5090209;28;20192;-83
2022/04/03 04:01:43;;;;;;;6.07;2.77;;;3.20;1.00;;;;;;5090222;28;20172;-83
2022/04/03 04:04:08;;;;;;;8.83;3.17;;;3.20;1.00;;;;;;5078917;28;20251;-83
2022/04/03 04:06:35;;;;;;;5.33;3.20;;;3.40;1.00;;;;;;5078060;28;20247;-83
2022/04/03 04:09:01;;;;;;;5.23;2.93;;;3.20;1.00;;;;;;5078196;28;20261;-85
2022/04/03 04:11:27;;;;;;;6.40;2.83;;;3.30;1.00;;;;;;5081024;28;20196;-84
2022/04/03 04:13:52;;;;;;;5.70;2.90;;;3.30;1.00;;;;;;5080995;28;20251;-82
2022/04/03 04:16:18;;;;;;;7.97;3.40;;;3.10;1.00;;;;;;5078479;28;20203;-85
2022/04/03 04:18:44;;;;;;;7.43;3.40;;;3.00;1.00;;;;;;5077618;28;20173;-78
2022/04/03 04:21:11;;;;;;;5.17;2.60;;;3.00;1.00;;;;;;5077415;28;20222;-86
2022/04/03 04:23:37;;;;;;;5.27;3.30;;;3.00;1.00;;;;;;5058466;28;20251;-83
2022/04/03 04:26:04;;;;;;;7.10;3.07;;;3.00;1.00;;;;;;5058729;28;20676;-85
2022/04/03 04:28:30;;;;;;;5.23;2.90;;;3.20;1.00;;;;;;5076355;28;20171;-78
2022/04/03 04:30:57;;;;;;;7.03;3.23;;;3.00;1.00;;;;;;5077480;28;20168;-85
2022/04/03 04:33:24;;;;;;;4.60;3.00;;;2.80;1.00;;;;;;5076052;28;20200;-77
2022/04/03 04:35:50;;;;;;;6.27;3.40;;;2.80;1.00;;;;;;5076386;28;20184;-79
2022/04/03 04:38:17;;;;;;;6.03;3.50;;;2.80;1.00;;;;;;5076792;28;20233;-81
2022/04/03 04:40:43;;;;;;;7.00;3.03;;;2.90;1.00;;;;;;5059124;28;20204;-78
2022/04/03 04:43:10;;;;;;;5.77;3.40;;;3.00;1.00;;;;;;5076327;28;20161;-84
2022/04/03 04:45:36;;;;;;;5.07;3.20;;;2.80;1.00;;;;;;5076409;28;20173;-84
2022/04/03 04:48:02;;;;;;;5.73;3.10;;;2.80;1.00;;;;;;5076315;28;20295;-84
2022/04/03 04:50:31;;;;;;;5.00;2.80;;;3.00;1.00;;;;;;5077992;28;20612;-79
2022/04/03 04:52:57;;;;;;;7.20;3.30;;;2.90;1.00;;;;;;5077576;28;20164;-82
2022/04/03 04:55:23;;;;;;;4.27;2.93;;;2.80;1.00;;;;;;5077063;28;20175;-82
2022/04/03 04:57:52;;;;;;;5.60;3.50;;;2.80;1.00;;;;;;5076325;28;20245;-84
2022/04/03 05:00:20;;;;;;;6.10;3.47;;;2.70;1.00;;;;;;5076692;28;20299;-79
2022/04/03 05:02:46;;;;;;;6.37;3.90;;;2.70;1.00;;;;;;5075641;28;20164;-79
2022/04/03 05:05:19;;;;;;;6.33;3.70;;;2.80;1.00;;;;;;5075783;28;20180;-81
2022/04/03 05:07:46;;;;;;;5.37;3.87;;;2.90;1.00;;;;;;5076603;28;20243;-82
2022/04/03 05:10:14;;;;;;;9.47;3.60;;;2.80;1.00;;;;;;5075448;28;20161;-84
2022/04/03 05:12:40;;;;;;;9.57;4.13;;;2.80;1.00;;;;;;5057568;28;20279;-85
2022/04/03 05:15:08;;;;;;;5.37;3.63;;;2.70;1.00;;;;;;5075925;28;20195;-85
2022/04/03 05:17:34;;;;;;;5.73;3.23;;;2.80;1.00;;;;;;5075471;28;20164;-82
2022/04/03 05:20:00;;;;;;;6.97;3.87;;;2.90;1.00;;;;;;5076299;28;20192;-78
2022/04/03 05:22:26;;;;;;;5.47;4.10;;;2.80;1.00;;;;;;5075968;28;20173;-83
2022/04/03 05:24:55;;;;;;;5.27;3.07;;;2.80;1.00;;;;;;5057840;28;20221;-76
2022/04/03 05:27:22;;;;;;;6.07;4.00;;;2.80;1.00;;;;;;5075356;28;20164;-81
2022/04/03 05:29:48;;;;;;;8.80;4.30;;;3.00;1.00;;;;;;5058151;28;20176;-84
2022/04/03 05:32:17;;;;;;;6.90;4.43;;;3.20;1.00;;;;;;5075624;28;20171;-77
2022/04/03 05:34:43;;;;;;;6.83;4.50;;;3.30;1.00;;;;;;5075299;28;20244;-82
2022/04/03 05:37:08;;;;;;;5.60;4.40;;;3.30;1.00;;;;;;5075028;28;20643;-85
2022/04/03 05:39:34;;;;;;;9.07;3.93;;;3.30;1.00;;;;;;5075472;28;20558;-85
2022/04/03 05:42:00;;;;;;;5.63;3.70;;;3.30;1.00;;;;;;5075431;28;20254;-82
2022/04/03 05:44:25;;;;;;;8.20;4.20;;;3.40;1.00;;;;;;5075716;28;20252;-83
2022/04/03 05:46:51;;;;;;;7.27;4.30;;;3.40;1.00;;;;;;5092098;28;20168;-82
2022/04/03 05:49:17;;;;;;;7.23;4.30;;;3.50;1.00;;;;;;5092985;28;20250;-78
2022/04/03 05:51:49;;;;;;;6.37;3.73;;;3.60;1.00;;;;;;5083473;28;20609;-85
2022/04/03 05:54:21;;;;;;;8.63;3.60;;;3.60;1.00;;;;;;5077459;28;20172;-78
2022/04/03 05:56:46;;;;;;;8.27;4.33;;;3.50;1.00;;;;;;5077916;28;20168;-78
2022/04/03 05:59:12;;;;;;;5.53;3.90;;;3.60;1.00;;;;;;5080861;28;20535;-81
2022/04/03 06:01:38;;;;;;;6.13;4.10;;;3.60;1.00;;;;;;5077311;28;20165;-83
2022/04/03 06:04:04;;;;;;;5.97;3.90;;;3.70;1.00;;;;;;5091716;28;20675;-78
2022/04/03 06:06:33;;;;;;;8.10;4.47;;;3.80;1.00;;;;;;5080819;28;20165;-82
2022/04/03 06:09:00;;;;;;;6.23;3.83;;;3.80;1.00;;;;;;5057974;28;20184;-83
2022/04/03 06:11:26;;;;;;;7.53;3.97;;;4.00;1.00;;;;;;5076805;28;20513;-77
2022/04/03 06:13:52;;;;;;;6.77;4.07;;;4.00;1.00;;;;;;5056598;28;20188;-78
2022/04/03 06:16:17;;;;;;;5.97;4.10;;;4.10;1.00;;;;;;5074566;28;20184;-84
2022/04/03 06:18:43;;;;;;;6.00;4.23;;;4.20;1.00;;;;;;5074465;28;20164;-84
2022/04/03 06:21:09;;;;;;;5.90;4.07;;;4.20;1.00;;;;;;5075243;28;20215;-85
2022/04/03 06:23:35;;;;;;;6.43;3.97;;;4.30;1.00;;;;;;5076287;28;20196;-79
2022/04/03 06:26:02;;;;;;;7.90;4.80;;;4.50;1.00;;;;;;5083227;28;20514;-81
2022/04/03 06:28:28;;;;;;;7.20;5.73;;;4.60;1.00;;;;;;5075857;28;20644;-79
2022/04/03 06:30:55;;;;;;;11.13;5.70;;;4.80;1.00;;;;;;5074620;28;20203;-81
2022/04/03 06:33:21;;;;;;;10.53;5.07;;;4.60;1.00;;;;;;5076294;28;20173;-82
2022/04/03 06:35:47;;;;;;;7.50;4.93;;;4.70;1.00;;;;;;5074989;28;20628;-78
2022/04/03 06:38:15;;;;;;;6.73;5.27;;;4.70;1.00;;;;;;5074653;28;20168;-79
2022/04/03 06:40:54;;;;;;;8.07;5.20;;;4.70;1.00;;;;;;5068790;28;20341;-78
2022/04/03 06:43:23;;;;;;;8.70;4.93;;;4.90;1.00;;;;;;5082910;28;20210;-83
2022/04/03 06:45:49;;;;;;;8.73;5.07;;;4.90;1.00;;;;;;5073649;28;20184;-84
2022/04/03 06:48:16;;;;;;;6.70;4.77;;;5.00;1.00;;;;;;5073796;28;20171;-84
2022/04/03 06:50:45;;;;;;;8.73;5.47;;;5.20;99.90;;;;;;5069377;28;20176;-85
2022/04/03 06:53:11;;;;;;;8.47;4.97;;;5.20;99.90;;;;;;5061765;28;20176;-82
2022/04/03 06:55:37;;;;;;;9.00;5.33;;;5.30;99.90;;;;;;5063501;28;20629;-81
2022/04/03 06:58:03;;;;;;;7.40;4.57;;;5.40;99.90;;;;;;5062574;28;20175;-86
2022/04/03 07:00:29;;;;;;;8.13;4.20;;;5.50;99.90;;;;;;5065832;28;20196;-80
2022/04/03 07:02:55;;;;;;;5.73;4.40;;;5.70;99.90;;;;;;5077062;28;20173;-82
2022/04/03 07:05:21;;;;;;;6.80;4.57;;;5.70;99.90;;;;;;5083459;28;20191;-81
2022/04/03 07:07:46;;;;;;;6.97;3.97;;;5.80;99.90;;;;;;5056268;28;20200;-82
2022/04/03 07:10:13;;;;;;;6.70;3.77;;;5.90;70.10;;;;;;5074804;28;20168;-84
2022/04/03 07:12:39;;;;;;;5.67;3.50;;;6.00;1.00;;;;;;5073970;28;20184;-80
2022/04/03 07:15:08;;;;;;;7.27;4.17;;;6.10;1.00;;;;;;5074375;28;20961;-85
2022/04/03 07:17:34;;;;;;;5.40;4.10;;;6.20;99.90;;;;;;5074681;28;20642;-84
2022/04/03 07:20:00;;;;;;;5.87;4.00;;;6.40;99.90;;;;;;5076366;28;20210;-79
2022/04/03 07:22:26;;;;;;;5.27;3.57;;;6.40;87.30;;;;;;5087933;28;20243;-77
2022/04/03 07:24:52;;;;;;;5.53;3.67;;;6.50;99.90;;;;;;5087544;28;20184;-78
2022/04/03 07:27:17;;;;;;;5.70;4.17;;;6.40;1.00;;;;;;5086687;28;20163;-85
2022/04/03 07:29:43;;;;;;;7.03;4.40;;;6.40;1.00;;;;;;5074063;28;20259;-83
2022/04/03 07:32:09;;;;;;;4.90;4.07;;;6.70;1.00;;;;;;5074065;28;20179;-81
2022/04/03 07:34:35;;;;;;;6.43;3.70;;;6.40;37.70;;;;;;5073569;28;20168;-84
2022/04/03 07:37:00;;;;;;;8.33;4.60;;;6.50;1.00;;;;;;5073748;28;20187;-84
2022/04/03 07:39:26;;;;;;;6.03;3.83;;;6.60;1.00;;;;;;5055583;28;20196;-82
2022/04/03 07:41:52;;;;;;;3.33;2.50;;;6.70;18.80;;;;;;5073909;28;20662;-85
2022/04/03 07:44:18;;;;;;;4.30;2.50;;;6.80;1.00;;;;;;5073625;28;20180;-84
2022/04/03 07:46:43;;;;;;;8.67;2.90;;;6.70;5.30;;;;;;5073920;28;20164;-81
2022/04/03 07:49:10;;;;;;;4.40;2.40;;;6.50;99.90;;;;;;5055767;28;20168;-83
2022/04/03 07:51:36;;;;;;;5.03;2.40;;;6.50;1.00;;;;;;5074487;28;20168;-86
2022/04/03 07:54:02;;;;;;;4.83;2.70;;;6.70;99.90;;;;;;5081881;28;20233;-77
2022/04/03 07:56:28;;;;;;;3.60;2.30;;;6.50;99.90;;;;;;5090455;28;20168;-81
2022/04/03 07:58:54;;;;;;;4.83;2.70;;;6.70;1.00;;;;;;5094169;28;20228;-77
2022/04/03 08:01:20;;;;;;;2.83;2.20;;;6.70;1.00;;;;;;5075250;28;20207;-78
2022/04/03 08:03:45;;;;;;;3.53;2.27;;;6.80;99.90;;;;;;5089064;28;20161;-81
2022/04/03 08:06:11;;;;;;;3.20;1.40;;;7.10;1.00;;;;;;5089316;28;20175;-78
2022/04/03 08:08:37;;;;;;;4.17;1.80;;;6.90;99.90;;;;;;5089241;28;20225;-83
2022/04/03 08:11:12;;;;;;;4.63;1.50;;;6.70;1.00;;;;;;5076258;28;20636;-83
2022/04/03 08:13:41;;;;;;;4.43;2.00;;;6.60;1.00;;;;;;5082920;28;20168;-85
2022/04/03 08:16:08;;;;;;;4.63;2.00;;;6.20;1.00;;;;;;5093410;28;20199;-84
2022/04/03 08:18:37;;;;;;;5.83;2.30;;;6.10;1.00;;;;;;5086620;28;20240;-83
2022/04/03 08:21:04;;;;;;;5.07;2.17;;;6.10;1.00;;;;;;5076231;28;20196;-84
2022/04/03 08:23:30;;;;;;;4.17;1.93;;;6.40;1.00;;;;;;5074664;28;20613;-84
2022/04/03 08:25:56;;;;;;;4.33;2.07;;;6.60;1.00;;;;;;5073438;28;20176;-86
2022/04/03 08:28:22;;;;;;;5.50;2.17;;;6.50;99.90;;;;;;5055816;28;20264;-83
2022/04/03 08:30:48;;;;;;;5.13;1.80;;;6.50;99.90;;;;;;5073941;28;20194;-85
2022/04/03 08:33:14;;;;;;;5.23;1.87;;;6.50;60.90;;;;;;5073545;28;20168;-81
2022/04/03 08:35:40;;;;;;;4.63;2.10;;;6.60;1.00;;;;;;5073593;28;20203;-81
2022/04/03 08:38:07;;;;;;;4.33;2.10;;;6.50;1.00;;;;;;5073484;28;20168;-87
2022/04/03 08:40:34;;;;;;;2.10;1.40;;;6.70;99.90;;;;;;5074170;28;20589;-85
2022/04/03 08:43:01;;;;;;;2.60;1.43;;;6.60;1.00;;;;;;5076845;28;20251;-85
2022/04/03 08:45:27;;;;;;;2.80;1.33;;;6.30;1.00;;;;;;5075752;28;20183;-77
2022/04/03 08:47:56;;;;;;;2.60;1.70;;;6.00;99.90;;;;;;5081442;28;20229;-85
2022/04/03 08:50:27;;;;;;;3.23;1.60;;;6.00;1.00;;;;;;5061775;28;20551;-84
2022/04/03 08:52:56;;;;;;;3.10;1.43;;;6.20;99.90;;;;;;5079016;28;20173;-84
2022/04/03 08:55:22;;;;;;;3.33;1.77;;;6.50;66.00;;;;;;5062283;28;20277;-83
2022/04/03 08:57:48;;;;;;;4.03;1.70;;;6.90;68.20;;;;;;5082514;28;20164;-83
2022/04/03 09:00:15;;;;;;;3.70;1.80;;;7.10;99.90;;;;;;5080523;28;20200;-80
2022/04/03 09:02:42;;;;;;;4.30;1.90;;;7.40;1.00;;;;;;5077668;28;20235;-84
2022/04/03 09:05:11;;;;;;;8.47;2.23;;;7.30;1.00;;;;;;5079202;28;20172;-87
2022/04/03 09:07:38;;;;;;;5.47;2.33;;;7.20;1.00;;;;;;5075142;28;20274;-78
2022/04/03 09:10:10;;;;;;;4.63;2.30;;;7.20;1.00;;;;;;5071041;28;20181;-84
2022/04/03 09:13:02;;;;;;;3.67;2.17;;;7.20;1.00;;;;;;5065198;28;20192;-76
2022/04/03 09:15:30;;;;;;;5.07;2.07;;;7.40;1.00;;;;;;5072633;28;20698;-85
2022/04/03 09:17:58;;;;;;;2.53;1.83;;;7.20;1.00;;;;;;5075899;28;20175;-82
2022/04/03 09:20:30;;;;;;;3.67;1.50;;;6.90;99.90;;;;;;5075982;28;20203;-86
2022/04/03 09:23:10;;;;;;;3.93;2.03;;;6.80;1.00;;;;;;5076300;28;20179;-85
2022/04/03 09:25:39;;;;;;;3.07;1.70;;;6.70;99.90;;;;;;5064188;28;20173;-85
2022/04/03 09:28:14;;;;;;;2.53;1.70;;;6.90;1.00;;;;;;5055914;28;20169;-82
2022/04/03 09:30:47;;;;;;;3.37;2.27;;;7.00;1.00;;;;;;5057390;28;20173;-80
2022/04/03 09:33:19;;;;;;;4.37;2.37;;;7.30;99.90;;;;;;5056493;28;20173;-79
2022/04/03 09:36:01;;;;;;;3.77;2.07;;;7.40;1.00;;;;;;5064228;28;20165;-84
2022/04/03 09:38:32;;;;;;;3.70;2.30;;;7.40;1.00;;;;;;5067704;28;20164;-85
2022/04/03 09:41:00;;;;;;;4.87;2.23;;;7.70;1.00;;;;;;5076379;28;20192;-82
2022/04/03 09:43:38;;;;;;;4.17;2.20;;;7.70;99.90;;;;;;5059232;28;20196;-77
2022/04/03 09:46:06;;;;;;;2.93;2.20;;;7.90;99.90;;;;;;5055172;28;20185;-81
2022/04/03 09:48:34;;;;;;;3.07;2.20;;;7.60;16.60;;;;;;5072554;28;20203;-79
2022/04/03 09:51:19;;;;;;;3.13;2.37;;;7.50;1.00;;;;;;5047196;28;20219;-78
2022/04/03 09:53:47;;;;;;;2.67;2.07;;;7.40;1.00;;;;;;5055465;28;20176;-77
2022/04/03 09:56:31;;;;;;;3.10;2.10;;;7.50;1.00;;;;;;5055549;28;20176;-77
2022/04/03 09:58:57;;;;;;;4.73;2.30;;;7.50;4.30;;;;;;5056237;28;20200;-77
2022/04/03 10:01:35;;;;;;;3.63;2.23;;;7.50;99.90;;;;;;5059795;28;20283;-82
2022/04/03 10:04:05;;;;;;;5.77;2.73;;;7.70;13.30;;;;;;5054687;28;20161;-79
2022/04/03 10:06:34;;;;;;;4.83;2.90;;;7.90;1.00;;;;;;5054845;28;20186;-77
2022/04/03 10:09:01;;;;;;;5.73;2.60;;;8.20;1.00;;;;;;5072216;28;20179;-77
2022/04/03 10:11:28;;;;;;;3.63;2.40;;;8.50;99.90;;;;;;5075393;28;20212;-82
2022/04/03 10:13:54;;;;;;;3.43;2.23;;;8.80;99.90;;;;;;5075057;28;20569;-78
2022/04/03 10:16:20;;;;;;;5.93;2.40;;;9.10;99.90;;;;;;5074951;28;20644;-78
2022/04/03 10:18:48;;;;;;;5.37;2.90;;;9.20;99.90;;;;;;5081649;28;20164;-79
2022/04/03 10:21:26;;;;;;;3.40;2.43;;;8.70;99.90;;;;;;5085838;28;20192;-79
2022/04/03 10:24:00;;;;;;;4.47;2.63;;;8.50;99.90;;;;;;5084537;28;20160;-77
2022/04/03 10:26:38;;;;;;;3.57;2.37;;;7.90;1.00;;;;;;5083725;28;20235;-78
2022/04/03 10:29:12;;;;;;;4.17;2.40;;;7.80;99.90;;;;;;5084800;28;20168;-79
2022/04/03 10:31:39;;;;;;;12.50;2.30;;;8.10;17.10;;;;;;5075970;28;20175;-83
2022/04/03 10:34:05;;;;;;;2.80;1.87;;;8.50;1.00;;;;;;5076003;28;20164;-80
2022/04/03 10:36:33;;;;;;;3.93;2.40;;;8.60;99.90;;;;;;5079423;28;20204;-79
2022/04/03 10:39:05;;;;;;;4.13;1.90;;;9.00;99.90;;;;;;5088902;28;20160;-83
2022/04/03 10:41:35;;;;;;;3.40;2.03;;;9.30;1.00;;;;;;5089422;28;20206;-77
2022/04/03 10:44:22;;;;;;;4.03;2.17;;;9.10;99.90;;;;;;5080864;28;20199;-76
2022/04/03 10:47:06;;;;;;;4.13;2.40;;;9.20;99.90;;;;;;5081816;28;20249;-86
2022/04/03 10:49:37;;;;;;;3.20;2.00;;;9.40;99.90;;;;;;5081742;28;20686;-85
2022/04/03 10:52:06;;;;;;;3.37;2.30;;;9.50;50.50;;;;;;5082905;28;20160;-82
2022/04/03 10:54:42;;;;;;;3.07;2.30;;;9.50;1.00;;;;;;5076703;28;20153;-83
2022/04/03 10:57:46;;;;;;;4.50;2.80;;;9.20;1.00;;;;;;5076187;28;20145;-87
2022/04/03 11:00:12;;;;;;;3.23;2.20;;;9.10;70.20;;;;;;5074873;28;20211;-85
2022/04/03 11:02:50;;;;;;;5.83;3.30;;;8.80;99.90;;;;;;5074375;28;20171;-80
2022/04/03 11:05:21;;;;;;;3.53;2.50;;;8.70;99.90;;;;;;5074459;28;20179;-84
2022/04/03 11:07:49;;;;;;;3.50;2.70;;;8.60;99.90;;;;;;5073995;28;20167;-81
2022/04/03 11:10:15;;;;;;;4.40;2.60;;;8.50;99.90;;;;;;5074024;28;20247;-79
2022/04/03 11:12:53;;;;;;;4.60;3.00;;;8.40;99.90;;;;;;5073747;28;20184;-81
2022/04/03 11:15:20;;;;;;;4.33;2.97;;;8.20;1.00;;;;;;5068284;28;20187;-78
2022/04/03 11:17:49;;;;;;;4.37;2.20;;;8.60;99.90;;;;;;5061740;28;20176;-84
2022/04/03 11:20:39;;;;;;;3.37;1.77;;;8.70;99.90;;;;;;5054361;28;20193;-86
2022/04/03 11:23:08;;;;;;;3.83;2.00;;;8.50;1.00;;;;;;5055237;28;20165;-86
2022/04/03 11:25:33;;;;;;;4.43;2.40;;;8.50;1.00;;;;;;5054770;28;20176;-76
2022/04/03 11:27:59;;;;;;;3.17;2.00;;;8.60;1.00;;;;;;5055587;28;20588;-82
2022/04/03 11:30:26;;;;;;;3.73;2.27;;;8.80;1.00;;;;;;5057153;28;20238;-81
2022/04/03 11:32:53;;;;;;;4.77;2.67;;;8.80;1.00;;;;;;5058122;28;20264;-84
2022/04/03 11:35:36;;;;;;;3.13;2.20;;;8.90;1.00;;;;;;5040854;28;20177;-88
2022/04/03 11:38:02;;;;;;;3.43;2.13;;;9.20;1.00;;;;;;5059450;28;20256;-84
2022/04/03 11:40:28;;;;;;;3.63;2.00;;;9.30;1.00;;;;;;5057106;28;20221;-88
2022/04/03 11:43:17;;;;;;;5.80;2.20;;;9.30;1.00;;;;;;5072066;28;20172;-87
2022/04/03 11:45:55;;;;;;;4.53;2.17;;;9.40;1.00;;;;;;5075191;28;20187;-86
2022/04/03 11:48:24;;;;;;;3.97;2.30;;;9.40;1.00;;;;;;5075064;28;20175;-86
2022/04/03 11:51:11;;;;;;;2.43;1.77;;;9.60;1.00;;;;;;5059559;28;20171;-87
2022/04/03 11:53:39;;;;;;;1.77;1.60;;;9.40;1.00;;;;;;5076468;28;20204;-88
2022/04/03 11:56:14;;;;;;;2.73;1.60;;;9.10;1.00;;;;;;5059096;28;20581;-87
2022/04/03 11:58:48;;;;;;;2.70;1.77;;;9.10;1.00;;;;;;5076867;28;20164;-87
2022/04/03 12:01:36;;;;;;;3.23;1.80;;;8.90;1.00;;;;;;5058655;28;20207;-87
2022/04/03 12:04:10;;;;;;;2.30;1.77;;;9.00;1.00;;;;;;5076047;28;20176;-83
2022/04/03 12:06:38;;;;;;;3.53;1.67;;;9.10;1.00;;;;;;5076289;28;20589;-87
2022/04/03 12:09:21;;;;;;;4.27;1.53;;;9.00;1.00;;;;;;5076246;28;20169;-87
2022/04/03 12:11:51;;;;;;;3.43;1.97;;;9.00;1.00;;;;;;5078116;28;20215;-87
2022/04/03 12:14:31;;;;;;;2.50;2.03;;;9.10;1.00;;;;;;5076512;28;20173;-87
2022/04/03 12:17:00;;;;;;;1.90;1.50;;;9.10;1.00;;;;;;5074211;28;20209;-86
2022/04/03 12:19:27;;;;;;;2.17;1.70;;;9.00;1.00;;;;;;5077520;28;20161;-88
2022/04/03 12:21:59;;;;;;;4.53;1.70;;;9.00;1.00;;;;;;5081200;28;20211;-89
2022/04/03 12:24:30;;;;;;;2.63;1.80;;;9.00;1.00;;;;;;5081392;28;20171;-89
2022/04/03 12:27:07;;;;;;;2.60;1.67;;;9.20;1.00;;;;;;5080048;28;20153;-88
2022/04/03 12:29:35;;;;;;;1.80;1.60;;;9.20;1.00;;;;;;5080457;28;20164;-89
2022/04/03 12:32:10;;;;;;;1.80;1.33;;;9.40;1.00;;;;;;5079919;28;20168;-87
2022/04/03 12:34:38;;;;;;;4.00;1.60;;;9.40;1.00;;;;;;5083379;28;20164;-88
2022/04/03 12:37:05;;;;;;;2.07;1.40;;;9.20;1.00;;;;;;5088174;28;20593;-85
2022/04/03 12:39:45;;;;;;;2.30;1.73;;;9.20;1.00;;;;;;5093319;28;20180;-84
2022/04/03 12:42:25;;;;;;;4.27;1.93;;;9.40;1.00;;;;;;5085029;28;20237;-87
2022/04/03 12:44:55;;;;;;;3.77;1.73;;;9.40;1.00;;;;;;5065651;28;20185;-86
2022/04/03 12:47:29;;;;;;;3.60;2.10;;;9.30;1.00;;;;;;5062658;28;20196;-87
2022/04/03 12:50:16;;;;;;;3.73;1.73;;;9.10;92.80;;;;;;5071641;28;20157;-87
2022/04/03 12:52:47;;;;;;;2.60;1.63;;;9.10;99.90;;;;;;5073168;28;20165;-87
2022/04/03 12:55:24;;;;;;;3.47;1.80;;;8.80;99.90;;;;;;5061137;28;20252;-88
2022/04/03 13:00:56;;;;;;;2.80;1.80;;;9.10;99.90;;;;;;5064541;28;20223;-86
2022/04/03 13:03:29;;;;;;;2.00;1.60;;;9.20;99.90;;;;;;5063583;28;20218;-88
2022/04/03 13:06:00;;;;;;;2.80;1.53;;;9.40;99.90;;;;;;5070179;28;20153;-77
2022/04/03 13:08:27;;;;;;;3.40;1.77;;;9.60;99.90;;;;;;5068821;28;20184;-78
2022/04/03 13:10:59;;;;;;;2.63;1.80;;;9.60;99.90;;;;;;5064077;28;20168;-79
2022/04/03 13:13:27;;;;;;;4.30;2.30;;;9.10;1.00;;;;;;5058075;28;20652;-85
2022/04/03 13:15:54;;;;;;;4.63;1.87;;;9.00;62.00;;;;;;5059200;28;20181;-84